createdAt,value
2018-07-15T00:01:25.130Z,15.40
2018-07-15T00:03:53.194Z,15.40
2018-07-15T00:06:21.163Z,15.40
2018-07-15T00:08:49.202Z,15.50
2018-07-15T00:11:17.132Z,15.60
2018-07-15T00:13:45.135Z,15.70
2018-07-15T00:16:13.043Z,15.70
2018-07-15T00:18:40.956Z,15.80
2018-07-15T00:21:08.840Z,15.70
2018-07-15T00:23:37.003Z,15.60
2018-07-15T00:26:05.063Z,15.40
2018-07-15T00:28:33.093Z,15.30
2018-07-15T00:31:02.144Z,15.30
2018-07-15T00:33:29.968Z,15.30
2018-07-15T00:35:57.728Z,15.20
2018-07-15T00:38:25.689Z,15.20
2018-07-15T00:40:53.581Z,15.20
2018-07-15T00:43:21.378Z,15.20
2018-07-15T00:45:49.366Z,15.40
2018-07-15T00:48:33.988Z,15.60
2018-07-15T00:51:01.827Z,15.70
2018-07-15T00:53:30.649Z,15.90
2018-07-15T00:55:58.448Z,16.00
2018-07-15T00:58:26.212Z,16.20
2018-07-15T01:00:59.607Z,16.30
2018-07-15T01:03:27.445Z,16.40
2018-07-15T01:05:55.204Z,16.50
2018-07-15T01:08:22.986Z,16.50
2018-07-15T01:10:51.769Z,16.40
2018-07-15T01:13:19.522Z,16.40
2018-07-15T01:15:47.291Z,16.40
2018-07-15T01:18:15.078Z,16.30
2018-07-15T01:20:42.920Z,16.20
2018-07-15T01:23:10.857Z,16.00
2018-07-15T01:25:38.597Z,16.00
2018-07-15T01:28:06.427Z,15.90
2018-07-15T01:30:34.471Z,15.80
2018-07-15T01:33:02.437Z,15.70
2018-07-15T01:35:30.399Z,15.50
2018-07-15T01:37:58.293Z,15.40
2018-07-15T01:40:26.272Z,15.20
2018-07-15T01:42:54.242Z,15.10
2018-07-15T01:45:22.215Z,15.10
2018-07-15T01:47:50.145Z,15.10
2018-07-15T01:50:18.113Z,15.10
2018-07-15T01:52:46.022Z,15.10
2018-07-15T01:55:14.031Z,15.10
2018-07-15T01:57:41.922Z,15.10
2018-07-15T02:00:09.887Z,15.20
2018-07-15T02:02:37.827Z,15.30
2018-07-15T02:05:06.370Z,15.40
2018-07-15T02:07:34.891Z,15.60
2018-07-15T02:10:02.958Z,15.60
2018-07-15T02:12:30.840Z,15.70
2018-07-15T02:14:58.744Z,15.60
2018-07-15T02:17:26.656Z,15.50
2018-07-15T02:19:54.557Z,15.50
2018-07-15T02:22:22.595Z,15.40
2018-07-15T02:24:51.399Z,15.30
2018-07-15T02:27:19.756Z,15.30
2018-07-15T02:30:09.659Z,15.30
2018-07-15T02:32:37.536Z,15.20
2018-07-15T02:35:05.426Z,15.20
2018-07-15T02:37:33.254Z,15.20
2018-07-15T02:40:01.046Z,15.30
2018-07-15T02:42:28.806Z,15.30
2018-07-15T02:45:17.629Z,15.10
2018-07-15T02:47:58.156Z,15.20
2018-07-15T02:50:25.938Z,15.00
2018-07-15T02:52:53.884Z,15.00
2018-07-15T02:55:21.823Z,15.00
2018-07-15T02:57:49.791Z,15.00
2018-07-15T03:00:17.780Z,14.90
2018-07-15T03:02:45.694Z,14.80
2018-07-15T03:05:13.590Z,14.70
2018-07-15T03:07:41.487Z,14.50
2018-07-15T03:10:09.765Z,14.40
2018-07-15T03:12:37.696Z,14.40
2018-07-15T03:15:05.626Z,14.30
2018-07-15T03:17:33.554Z,14.20
2018-07-15T03:20:01.551Z,14.10
2018-07-15T03:22:29.495Z,14.10
2018-07-15T03:24:58.507Z,13.90
2018-07-15T03:27:26.519Z,13.90
2018-07-15T03:29:54.432Z,13.90
2018-07-15T03:32:22.362Z,13.80
2018-07-15T03:34:50.283Z,13.80
2018-07-15T03:37:18.151Z,13.70
2018-07-15T03:39:46.097Z,13.70
2018-07-15T03:42:13.994Z,13.60
2018-07-15T03:44:42.030Z,13.60
2018-07-15T03:47:09.989Z,13.60
2018-07-15T03:49:37.950Z,13.50
2018-07-15T03:54:48.403Z,13.50
2018-07-15T03:57:16.225Z,13.50
2018-07-15T03:59:44.065Z,13.40
2018-07-15T04:02:11.820Z,13.50
2018-07-15T04:04:39.612Z,13.60
2018-07-15T04:09:59.847Z,13.80
2018-07-15T04:12:29.688Z,13.90
2018-07-15T04:14:57.566Z,13.90
2018-07-15T04:17:25.435Z,14.00
2018-07-15T04:19:53.252Z,14.00
2018-07-15T04:22:21.114Z,14.00
2018-07-15T04:24:48.920Z,14.10
2018-07-15T04:27:16.696Z,14.10
2018-07-15T04:29:44.574Z,14.10
2018-07-15T04:32:29.966Z,14.20
2018-07-15T04:35:23.814Z,14.40
2018-07-15T04:37:52.041Z,14.50
2018-07-15T04:40:20.374Z,14.70
2018-07-15T04:42:48.645Z,14.90
2018-07-15T04:45:16.745Z,15.00
2018-07-15T04:47:44.677Z,15.10
2018-07-15T04:50:12.542Z,15.30
2018-07-15T04:52:40.364Z,15.40
2018-07-15T04:55:08.390Z,15.50
2018-07-15T04:57:36.207Z,15.70
2018-07-15T05:00:04.261Z,15.90
2018-07-15T05:02:32.088Z,16.00
2018-07-15T05:04:59.852Z,16.10
2018-07-15T05:07:27.614Z,16.30
2018-07-15T05:09:55.561Z,16.50
2018-07-15T05:12:23.340Z,16.70
2018-07-15T05:14:51.146Z,16.80
2018-07-15T05:17:24.993Z,17.00
2018-07-15T05:19:52.902Z,17.10
2018-07-15T05:22:20.803Z,17.30
2018-07-15T05:24:48.743Z,17.50
2018-07-15T05:27:16.726Z,17.70
2018-07-15T05:29:44.647Z,17.90
2018-07-15T05:32:12.664Z,18.10
2018-07-15T05:34:40.595Z,18.10
2018-07-15T05:37:08.498Z,18.10
2018-07-15T05:39:36.480Z,18.20
2018-07-15T05:42:04.416Z,18.20
2018-07-15T05:44:32.373Z,18.40
2018-07-15T05:47:00.250Z,18.60
2018-07-15T05:49:28.141Z,18.70
2018-07-15T05:51:56.073Z,18.70
2018-07-15T05:54:25.001Z,18.90
2018-07-15T05:56:52.883Z,19.10
2018-07-15T05:59:20.804Z,19.20
2018-07-15T06:01:48.802Z,19.60
2018-07-15T06:04:16.698Z,19.50
2018-07-15T06:06:44.611Z,19.50
2018-07-15T06:09:12.553Z,19.60
2018-07-15T06:11:40.445Z,19.70
2018-07-15T06:14:09.386Z,19.90
2018-07-15T06:16:37.293Z,20.00
2018-07-15T06:19:05.128Z,20.00
2018-07-15T06:21:33.035Z,20.10
2018-07-15T06:24:01.236Z,20.20
2018-07-15T06:26:29.164Z,20.30
2018-07-15T06:28:57.030Z,20.50
2018-07-15T06:31:24.854Z,20.60
2018-07-15T06:33:52.682Z,20.90
2018-07-15T06:36:30.488Z,21.40
2018-07-15T06:38:58.317Z,21.50
2018-07-15T06:41:29.388Z,21.70
2018-07-15T06:43:57.243Z,21.50
2018-07-15T06:46:25.113Z,21.50
2018-07-15T06:48:52.973Z,21.70
2018-07-15T06:51:20.794Z,21.90
2018-07-15T06:53:48.592Z,21.70
2018-07-15T06:56:16.501Z,21.70
2018-07-15T06:58:44.385Z,21.80
2018-07-15T07:01:12.275Z,21.80
2018-07-15T07:03:40.075Z,22.00
2018-07-15T07:06:07.989Z,22.10
2018-07-15T07:08:35.811Z,22.00
2018-07-15T07:11:03.865Z,22.30
2018-07-15T07:13:31.790Z,22.30
2018-07-15T07:19:04.471Z,22.40
2018-07-15T07:21:33.359Z,22.40
2018-07-15T07:24:01.274Z,22.70
2018-07-15T07:26:29.184Z,22.90
2018-07-15T07:28:57.154Z,23.00
2018-07-15T07:31:26.583Z,22.90
2018-07-15T07:33:54.472Z,23.40
2018-07-15T07:36:23.350Z,23.40
2018-07-15T07:38:51.265Z,23.40
2018-07-15T07:41:21.133Z,23.50
2018-07-15T07:43:49.311Z,23.60
2018-07-15T07:46:17.095Z,23.90
2018-07-15T07:48:45.100Z,24.30
2018-07-15T07:51:13.112Z,24.30
2018-07-15T07:53:41.069Z,24.30
2018-07-15T07:56:09.021Z,24.50
2018-07-15T07:58:36.956Z,24.60
2018-07-15T08:01:04.820Z,24.60
2018-07-15T08:03:32.698Z,24.90
2018-07-15T08:06:00.601Z,24.90
2018-07-15T08:08:28.496Z,24.80
2018-07-15T08:10:56.385Z,24.80
2018-07-15T08:13:24.340Z,25.10
2018-07-15T08:15:53.244Z,25.10
2018-07-15T08:18:21.086Z,25.00
2018-07-15T08:20:48.974Z,25.30
2018-07-15T08:23:16.759Z,25.20
2018-07-15T08:25:44.543Z,25.30
2018-07-15T08:28:12.452Z,25.30
2018-07-15T08:30:52.426Z,25.60
2018-07-15T08:33:20.304Z,25.70
2018-07-15T08:35:48.155Z,26.30
2018-07-15T08:38:15.968Z,26.50
2018-07-15T08:40:45.945Z,27.50
2018-07-15T08:43:13.849Z,27.30
2018-07-15T08:46:20.187Z,27.30
2018-07-15T08:48:48.050Z,27.00
2018-07-15T08:51:16.973Z,26.70
2018-07-15T08:53:44.790Z,26.90
2018-07-15T08:56:12.670Z,27.30
2018-07-15T08:58:40.530Z,27.50
2018-07-15T09:01:08.447Z,27.70
2018-07-15T09:03:36.369Z,27.20
2018-07-15T09:06:05.355Z,27.20
2018-07-15T09:08:33.233Z,27.90
2018-07-15T09:11:02.112Z,27.80
2018-07-15T09:13:29.980Z,28.40
2018-07-15T09:15:59.834Z,28.60
2018-07-15T09:18:27.735Z,28.90
2018-07-15T09:20:55.629Z,29.50
2018-07-15T09:23:23.608Z,28.60
2018-07-15T09:25:51.511Z,28.70
2018-07-15T09:28:20.727Z,28.30
2018-07-15T09:30:48.659Z,28.40
2018-07-15T09:33:16.723Z,28.70
2018-07-15T09:35:44.706Z,28.40
2018-07-15T09:38:12.662Z,28.40
2018-07-15T09:40:40.744Z,28.10
2018-07-15T09:43:09.597Z,27.90
2018-07-15T09:45:38.617Z,28.40
2018-07-15T09:48:06.594Z,29.10
2018-07-15T09:50:34.520Z,29.80
2018-07-15T09:53:02.434Z,30.00
2018-07-15T09:55:30.460Z,28.80
2018-07-15T09:57:58.424Z,28.10
2018-07-15T10:00:32.067Z,27.90
2018-07-15T10:02:59.963Z,28.40
2018-07-15T10:05:27.917Z,28.50
2018-07-15T10:07:55.865Z,29.20
2018-07-15T10:10:23.800Z,29.80
2018-07-15T10:12:51.701Z,29.40
2018-07-15T10:15:19.661Z,29.00
2018-07-15T10:17:47.652Z,28.80
2018-07-15T10:20:15.561Z,28.40
2018-07-15T10:25:35.904Z,28.80
2018-07-15T10:28:03.807Z,28.20
2018-07-15T10:30:31.628Z,28.10
2018-07-15T10:32:59.487Z,29.20
2018-07-15T10:35:27.272Z,30.00
2018-07-15T10:37:55.137Z,30.30
2018-07-15T10:40:23.111Z,30.10
2018-07-15T10:43:00.134Z,29.60
2018-07-15T10:45:27.958Z,29.10
2018-07-15T10:47:55.744Z,29.20
2018-07-15T10:50:25.765Z,29.40
2018-07-15T10:52:53.665Z,30.30
2018-07-15T10:55:21.443Z,31.30
2018-07-15T10:57:49.353Z,31.20
2018-07-15T11:00:17.202Z,30.80
2018-07-15T11:02:45.082Z,30.00
2018-07-15T11:05:13.928Z,29.80
2018-07-15T11:07:41.729Z,29.80
2018-07-15T11:10:09.706Z,29.80
2018-07-15T11:12:38.040Z,29.90
2018-07-15T11:15:07.098Z,29.90
2018-07-15T11:17:34.917Z,29.90
2018-07-15T11:20:03.011Z,30.50
2018-07-15T11:25:19.139Z,31.20
2018-07-15T11:27:46.984Z,30.40
2018-07-15T11:30:14.817Z,30.40
2018-07-15T11:32:42.777Z,31.60
2018-07-15T11:35:10.585Z,31.70
2018-07-15T11:37:38.424Z,31.40
2018-07-15T11:40:06.240Z,31.10
2018-07-15T11:42:35.115Z,30.10
2018-07-15T11:45:03.005Z,29.70
2018-07-15T11:47:30.836Z,29.80
2018-07-15T11:49:58.629Z,30.60
2018-07-15T11:52:26.471Z,31.30
2018-07-15T11:54:54.540Z,31.40
2018-07-15T11:57:22.311Z,31.80
2018-07-15T11:59:50.164Z,32.60
2018-07-15T12:02:17.949Z,32.10
2018-07-15T12:07:34.007Z,32.20
2018-07-15T12:10:01.918Z,32.40
2018-07-15T12:12:29.760Z,32.60
2018-07-15T12:14:57.671Z,33.20
2018-07-15T12:17:25.504Z,33.30
2018-07-15T12:19:53.398Z,31.70
2018-07-15T12:22:21.249Z,32.50
2018-07-15T12:24:49.172Z,32.50
2018-07-15T12:27:16.994Z,32.20
2018-07-15T12:33:29.383Z,32.00
2018-07-15T12:35:57.230Z,32.50
2018-07-15T12:38:25.138Z,32.60
2018-07-15T12:40:53.005Z,32.40
2018-07-15T12:43:21.758Z,31.20
2018-07-15T12:45:50.690Z,31.10
2018-07-15T12:48:18.534Z,31.50
2018-07-15T12:50:47.405Z,31.70
2018-07-15T12:53:15.317Z,32.00
2018-07-15T12:55:43.242Z,32.50
2018-07-15T12:58:11.130Z,32.90
2018-07-15T13:00:40.002Z,32.80
2018-07-15T13:03:11.831Z,32.70
2018-07-15T13:05:39.700Z,32.70
2018-07-15T13:08:07.594Z,32.10
2018-07-15T13:10:35.447Z,31.40
2018-07-15T13:13:03.368Z,31.10
2018-07-15T13:15:31.167Z,31.00
2018-07-15T13:17:59.032Z,31.40
2018-07-15T13:20:26.894Z,32.20
2018-07-15T13:22:55.306Z,32.60
2018-07-15T13:25:23.155Z,33.00
2018-07-15T13:27:52.229Z,32.50
2018-07-15T13:30:20.206Z,32.40
2018-07-15T13:32:48.056Z,32.40
2018-07-15T13:35:17.088Z,32.40
2018-07-15T13:37:45.150Z,32.50
2018-07-15T13:40:13.126Z,32.00
2018-07-15T13:42:41.005Z,32.20
2018-07-15T13:45:12.649Z,32.40
2018-07-15T13:47:40.464Z,32.50
2018-07-15T13:53:30.719Z,32.30
2018-07-15T13:55:58.646Z,32.50
2018-07-15T13:58:26.726Z,32.40
2018-07-15T14:00:55.690Z,32.00
2018-07-15T14:03:23.801Z,32.40
2018-07-15T14:05:51.747Z,32.60
2018-07-15T14:08:19.758Z,32.80
2018-07-15T14:10:48.612Z,33.70
2018-07-15T14:13:17.031Z,33.80
2018-07-15T14:15:44.959Z,33.70
2018-07-15T14:18:12.839Z,33.10
2018-07-15T14:20:40.841Z,33.70
2018-07-15T14:23:08.770Z,34.00
2018-07-15T14:25:36.809Z,33.90
2018-07-15T14:28:05.109Z,32.40
2018-07-15T14:30:32.973Z,32.00
2018-07-15T14:33:00.960Z,31.90
2018-07-15T14:35:29.058Z,32.10
2018-07-15T14:37:57.008Z,32.60
2018-07-15T14:40:24.853Z,32.50
2018-07-15T14:42:52.678Z,32.50
2018-07-15T14:45:20.572Z,32.70
2018-07-15T14:47:48.457Z,32.90
2018-07-15T14:50:16.225Z,32.50
2018-07-15T14:52:44.076Z,32.00
2018-07-15T14:55:12.019Z,32.20
2018-07-15T14:57:39.853Z,32.10
2018-07-15T15:00:07.715Z,32.20
2018-07-15T15:02:35.509Z,32.10
2018-07-15T15:05:05.318Z,32.10
2018-07-15T15:07:33.208Z,32.10
2018-07-15T15:10:38.190Z,32.50
2018-07-15T15:13:06.084Z,32.40
2018-07-15T15:15:34.882Z,31.80
2018-07-15T15:18:03.207Z,31.50
2018-07-15T15:20:31.085Z,30.80
2018-07-15T15:22:58.917Z,30.90
2018-07-15T15:25:26.877Z,31.30
2018-07-15T15:27:54.724Z,31.90
2018-07-15T15:30:23.478Z,32.70
2018-07-15T15:32:52.525Z,33.10
2018-07-15T15:38:36.078Z,33.50
2018-07-15T15:41:04.014Z,33.80
2018-07-15T15:43:55.858Z,33.30
2018-07-15T15:46:23.732Z,33.00
2018-07-15T15:48:51.547Z,32.90
2018-07-15T15:51:19.442Z,33.00
2018-07-15T15:53:47.379Z,33.20
2018-07-15T15:56:15.241Z,33.20
2018-07-15T15:58:43.141Z,33.10
2018-07-15T16:01:10.938Z,33.50
2018-07-15T16:03:38.842Z,33.50
2018-07-15T16:06:06.647Z,33.20
2018-07-15T16:08:34.624Z,33.40
2018-07-15T16:11:02.528Z,33.60
2018-07-15T16:13:30.450Z,33.60
2018-07-15T16:15:58.384Z,33.40
2018-07-15T16:18:26.178Z,33.10
2018-07-15T16:20:54.177Z,32.90
2018-07-15T16:23:22.048Z,32.60
2018-07-15T16:25:50.112Z,32.40
2018-07-15T16:28:30.402Z,32.40
2018-07-15T16:30:58.239Z,32.30
2018-07-15T16:33:26.239Z,32.70
2018-07-15T16:35:55.041Z,33.10
2018-07-15T16:38:22.868Z,32.60
2018-07-15T16:40:50.721Z,32.60
2018-07-15T16:43:18.586Z,32.40
2018-07-15T16:45:46.398Z,32.30
2018-07-15T16:48:15.247Z,32.20
2018-07-15T16:50:43.414Z,32.00
2018-07-15T16:53:11.208Z,31.70
2018-07-15T16:55:39.066Z,31.20
2018-07-15T16:58:07.856Z,31.20
2018-07-15T17:00:35.790Z,31.40
2018-07-15T17:03:04.919Z,31.30
2018-07-15T17:05:32.952Z,31.40
2018-07-15T17:08:34.091Z,31.30
2018-07-15T17:11:01.959Z,31.10
2018-07-15T17:13:29.790Z,31.10
2018-07-15T17:15:57.653Z,31.00
2018-07-15T17:18:25.520Z,31.00
2018-07-15T17:20:53.366Z,31.00
2018-07-15T17:23:21.187Z,30.70
2018-07-15T17:25:49.000Z,30.10
2018-07-15T17:28:16.870Z,29.40
2018-07-15T17:30:44.721Z,28.80
2018-07-15T17:33:22.947Z,28.30
2018-07-15T17:35:50.908Z,27.80
2018-07-15T17:38:18.865Z,27.50
2018-07-15T17:40:47.294Z,27.30
2018-07-15T17:43:15.186Z,27.20
2018-07-15T17:45:43.125Z,27.20
2018-07-15T17:48:11.139Z,27.10
2018-07-15T17:50:39.029Z,27.10
2018-07-15T17:53:06.946Z,27.00
2018-07-15T17:55:34.860Z,27.00
2018-07-15T17:58:03.059Z,27.00
2018-07-15T18:00:30.971Z,26.90
2018-07-15T18:02:58.894Z,26.90
2018-07-15T18:05:26.933Z,26.80
2018-07-15T18:07:54.815Z,26.60
2018-07-15T18:10:22.877Z,26.50
2018-07-15T18:12:50.841Z,26.40
2018-07-15T18:15:18.876Z,26.40
2018-07-15T18:17:46.812Z,26.30
2018-07-15T18:20:14.723Z,26.10
2018-07-15T18:22:42.806Z,26.10
2018-07-15T18:25:10.595Z,26.00
2018-07-15T18:27:38.482Z,26.00
2018-07-15T18:30:06.374Z,26.00
2018-07-15T18:32:34.275Z,25.90
2018-07-15T18:35:02.128Z,25.70
2018-07-15T18:37:29.948Z,25.60
2018-07-15T18:39:57.861Z,25.40
2018-07-15T18:42:25.686Z,25.30
2018-07-15T18:44:53.492Z,25.30
2018-07-15T18:47:21.287Z,25.20
2018-07-15T18:49:49.109Z,25.20
2018-07-15T18:52:17.056Z,25.10
2018-07-15T18:54:44.980Z,25.10
2018-07-15T18:57:13.156Z,25.00
2018-07-15T18:59:41.039Z,25.00
2018-07-15T19:02:09.002Z,24.80
2018-07-15T19:04:36.922Z,24.70
2018-07-15T19:07:04.958Z,24.50
2018-07-15T19:09:32.875Z,24.40
2018-07-15T19:12:00.851Z,24.20
2018-07-15T19:14:28.789Z,24.20
2018-07-15T19:16:56.830Z,24.00
2018-07-15T19:19:24.749Z,23.80
2018-07-15T19:21:52.704Z,23.80
2018-07-15T19:24:20.668Z,23.70
2018-07-15T19:26:49.171Z,23.50
2018-07-15T19:29:17.112Z,23.40
2018-07-15T19:31:45.161Z,23.30
2018-07-15T19:34:13.051Z,23.20
2018-07-15T19:36:40.988Z,23.20
2018-07-15T19:39:08.965Z,23.10
2018-07-15T19:41:36.996Z,22.90
2018-07-15T19:44:04.951Z,22.80
2018-07-15T19:46:32.879Z,22.70
2018-07-15T19:49:00.811Z,22.60
2018-07-15T19:51:28.759Z,22.40
2018-07-15T19:56:32.913Z,22.30
2018-07-15T19:59:00.757Z,22.10
2018-07-15T20:01:28.616Z,22.00
2018-07-15T20:03:56.491Z,21.80
2018-07-15T20:06:24.285Z,21.60
2018-07-15T20:08:52.149Z,21.50
2018-07-15T20:11:19.936Z,21.40
2018-07-15T20:13:48.806Z,21.30
2018-07-15T20:16:17.007Z,21.20
2018-07-15T20:18:45.065Z,21.20
2018-07-15T20:21:12.935Z,21.10
2018-07-15T20:23:40.766Z,21.00
2018-07-15T20:26:08.607Z,20.80
2018-07-15T20:28:36.423Z,20.70
2018-07-15T20:31:05.250Z,20.60
2018-07-15T20:33:33.039Z,20.50
2018-07-15T20:36:00.814Z,20.40
2018-07-15T20:38:28.620Z,20.30
2018-07-15T20:40:56.439Z,20.20
2018-07-15T20:43:24.203Z,20.20
2018-07-15T20:45:52.101Z,20.10
2018-07-15T20:48:19.938Z,20.00
2018-07-15T20:50:47.829Z,19.90
2018-07-15T20:53:15.627Z,19.90
2018-07-15T20:55:43.423Z,19.90
2018-07-15T20:58:11.249Z,19.90
2018-07-15T21:00:39.167Z,19.90
2018-07-15T21:03:07.070Z,19.80
2018-07-15T21:05:35.186Z,19.80
2018-07-15T21:08:03.309Z,19.80
2018-07-15T21:10:31.472Z,19.70
2018-07-15T21:13:05.478Z,19.70
2018-07-15T21:15:33.629Z,19.60
2018-07-15T21:18:01.718Z,19.50
2018-07-15T21:20:29.600Z,19.50
2018-07-15T21:22:57.584Z,19.40
2018-07-15T21:25:25.635Z,19.30
2018-07-15T21:27:53.548Z,19.20
2018-07-15T21:30:21.565Z,19.10
2018-07-15T21:32:50.474Z,19.20
2018-07-15T21:35:18.386Z,19.10
2018-07-15T21:37:46.384Z,19.20
2018-07-15T21:40:14.436Z,19.20
2018-07-15T21:42:42.402Z,19.20
2018-07-15T21:45:10.270Z,19.20
2018-07-15T21:47:53.112Z,19.20
2018-07-15T21:50:21.080Z,19.10
2018-07-15T21:52:49.158Z,19.10
2018-07-15T21:55:17.171Z,19.00
2018-07-15T21:57:45.211Z,18.90
2018-07-15T22:00:13.252Z,18.90
2018-07-15T22:02:41.322Z,18.80
2018-07-15T22:05:14.836Z,18.70
2018-07-15T22:11:01.800Z,18.80
2018-07-15T22:13:29.800Z,18.70
2018-07-15T22:15:57.722Z,18.70
2018-07-15T22:18:26.669Z,18.70
2018-07-15T22:20:54.635Z,18.70
2018-07-15T22:24:10.709Z,18.60
2018-07-15T22:26:46.614Z,18.40
2018-07-15T22:29:14.413Z,18.20
2018-07-15T22:31:42.257Z,18.20
2018-07-15T22:34:10.057Z,18.20
2018-07-15T22:43:47.515Z,18.10
2018-07-15T22:46:33.838Z,18.00
2018-07-15T22:49:06.626Z,17.90
2018-07-15T22:51:43.836Z,17.80
2018-07-15T22:54:11.667Z,17.80
2018-07-15T22:56:40.678Z,17.70
2018-07-15T22:59:08.552Z,17.70
2018-07-15T23:01:38.905Z,17.60
2018-07-15T23:07:52.541Z,17.60
2018-07-15T23:10:21.038Z,17.60
2018-07-15T23:12:49.046Z,17.60
2018-07-15T23:15:17.131Z,17.70
2018-07-15T23:17:45.005Z,17.80
2018-07-15T23:20:13.354Z,17.90
2018-07-15T23:22:41.506Z,17.90
2018-07-15T23:25:12.754Z,17.90
2018-07-15T23:27:40.679Z,17.80
2018-07-15T23:30:09.819Z,17.70
2018-07-15T23:32:37.745Z,17.70
2018-07-15T23:35:06.010Z,17.70
2018-07-15T23:37:34.099Z,17.80
2018-07-15T23:40:01.937Z,17.90
2018-07-15T23:42:29.815Z,17.90
2018-07-15T23:44:57.825Z,17.90
2018-07-15T23:47:25.698Z,17.80
2018-07-15T23:49:54.796Z,17.70
2018-07-15T23:52:24.002Z,17.60
2018-07-15T23:54:52.008Z,17.50
2018-07-15T23:57:19.802Z,17.50
2018-07-15T23:59:48.756Z,17.40
